createdAt,value
2023-02-16T00:01:53.396Z,56.27
2023-02-16T00:04:24.534Z,56.13
2023-02-16T00:06:53.758Z,56.19
2023-02-16T00:09:23.640Z,56.20
2023-02-16T00:12:10.682Z,56.31
2023-02-16T00:14:40.930Z,56.33
2023-02-16T00:17:12.115Z,56.63
2023-02-16T00:19:42.795Z,56.67
2023-02-16T00:22:11.564Z,56.62
2023-02-16T00:24:39.494Z,56.64
2023-02-16T00:27:15.008Z,56.59
2023-02-16T00:29:45.914Z,56.77
2023-02-16T00:32:15.466Z,56.69
2023-02-16T00:34:45.725Z,56.58
2023-02-16T00:37:14.893Z,56.84
2023-02-16T00:39:44.580Z,56.79
2023-02-16T00:42:18.082Z,56.39
2023-02-16T00:44:50.155Z,56.19
2023-02-16T00:47:20.908Z,56.21
2023-02-16T00:49:51.039Z,56.08
2023-02-16T00:52:34.590Z,56.19
2023-02-16T00:55:05.005Z,56.39
2023-02-16T00:57:36.776Z,56.37
2023-02-16T01:00:14.868Z,56.28
2023-02-16T01:02:43.615Z,56.29
2023-02-16T01:05:12.566Z,56.25
2023-02-16T01:07:58.297Z,56.19
2023-02-16T01:10:46.633Z,56.27
2023-02-16T01:13:15.636Z,56.35
2023-02-16T01:15:45.739Z,56.30
2023-02-16T01:18:15.401Z,56.24
2023-02-16T01:20:44.615Z,56.32
2023-02-16T01:23:13.181Z,56.23
2023-02-16T01:25:42.895Z,56.29
2023-02-16T01:28:20.317Z,56.28
2023-02-16T01:30:50.633Z,56.36
2023-02-16T01:33:18.885Z,56.41
2023-02-16T01:35:47.244Z,56.52
2023-02-16T01:38:20.050Z,56.31
2023-02-16T01:40:57.322Z,56.53
2023-02-16T01:43:29.844Z,56.49
2023-02-16T01:46:04.397Z,56.62
2023-02-16T01:48:33.543Z,56.87
2023-02-16T01:51:08.082Z,56.71
2023-02-16T01:53:41.048Z,56.94
2023-02-16T01:56:19.100Z,57.08
2023-02-16T01:58:51.459Z,57.13
2023-02-16T02:01:44.993Z,57.01
2023-02-16T02:04:42.247Z,57.27
2023-02-16T02:07:16.452Z,57.14
2023-02-16T02:09:51.250Z,57.16
2023-02-16T02:12:28.822Z,56.95
2023-02-16T02:14:57.375Z,57.27
2023-02-16T02:17:27.729Z,57.24
2023-02-16T02:20:03.227Z,57.48
2023-02-16T02:23:13.708Z,57.41
2023-02-16T02:26:24.430Z,57.71
2023-02-16T02:29:01.820Z,57.67
2023-02-16T02:31:42.075Z,57.69
2023-02-16T02:34:22.862Z,57.41
2023-02-16T02:36:59.845Z,57.47
2023-02-16T02:39:39.589Z,57.41
2023-02-16T02:42:14.780Z,57.58
2023-02-16T02:44:49.722Z,57.62
2023-02-16T02:47:17.875Z,57.69
2023-02-16T02:49:51.106Z,57.42
2023-02-16T02:52:19.594Z,57.53
2023-02-16T02:55:06.694Z,57.41
2023-02-16T02:57:58.015Z,57.58
2023-02-16T03:00:43.860Z,57.72
2023-02-16T03:03:17.016Z,57.80
2023-02-16T03:05:47.318Z,57.77
2023-02-16T03:08:18.345Z,57.85
2023-02-16T03:11:08.265Z,58.07
2023-02-16T03:13:44.074Z,58.63
2023-02-16T03:16:19.843Z,58.83
2023-02-16T03:19:06.756Z,58.82
2023-02-16T03:21:54.255Z,58.20
2023-02-16T03:24:45.568Z,58.25
2023-02-16T03:27:35.759Z,57.92
2023-02-16T03:30:07.065Z,57.93
2023-02-16T03:32:37.061Z,57.67
2023-02-16T03:35:05.400Z,57.82
2023-02-16T03:37:33.947Z,58.04
2023-02-16T03:40:26.033Z,58.01
2023-02-16T03:42:54.423Z,58.26
2023-02-16T03:45:24.930Z,58.16
2023-02-16T03:47:54.897Z,57.92
2023-02-16T03:50:23.955Z,58.01
2023-02-16T03:52:51.937Z,57.85
2023-02-16T03:55:20.232Z,58.09
2023-02-16T03:57:48.576Z,58.29
2023-02-16T04:00:17.343Z,58.13
2023-02-16T04:02:45.668Z,57.99
2023-02-16T04:05:15.385Z,58.10
2023-02-16T04:07:43.450Z,58.06
2023-02-16T04:10:11.869Z,57.73
2023-02-16T04:12:39.030Z,57.90
2023-02-16T04:15:09.334Z,57.74
2023-02-16T04:17:38.164Z,57.65
2023-02-16T04:20:07.735Z,57.71
2023-02-16T04:22:37.101Z,57.82
2023-02-16T04:25:06.071Z,58.12
2023-02-16T04:27:34.461Z,58.07
2023-02-16T04:30:02.551Z,58.11
2023-02-16T04:32:31.074Z,57.95
2023-02-16T04:34:59.244Z,57.93
2023-02-16T04:37:27.243Z,57.87
2023-02-16T04:39:56.948Z,58.06
2023-02-16T04:42:24.955Z,58.21
2023-02-16T04:44:53.319Z,58.23
2023-02-16T04:47:23.039Z,58.32
2023-02-16T04:49:51.053Z,58.42
2023-02-16T04:52:19.502Z,58.43
2023-02-16T04:54:47.913Z,58.81
2023-02-16T04:57:17.915Z,58.82
2023-02-16T04:59:46.012Z,58.68
2023-02-16T05:02:14.329Z,58.72
2023-02-16T05:04:43.069Z,58.64
2023-02-16T05:07:11.186Z,58.63
2023-02-16T05:09:39.386Z,58.77
2023-02-16T05:12:25.474Z,58.94
2023-02-16T05:14:55.248Z,59.25
2023-02-16T05:17:25.108Z,59.01
2023-02-16T05:19:55.689Z,59.03
2023-02-16T05:22:23.942Z,59.45
2023-02-16T05:24:52.453Z,59.51
2023-02-16T05:27:22.747Z,59.10
2023-02-16T05:29:51.014Z,58.67
2023-02-16T05:32:20.734Z,58.59
2023-02-16T05:34:49.188Z,58.98
2023-02-16T05:37:19.252Z,58.79
2023-02-16T05:39:47.228Z,58.65
2023-02-16T05:42:15.484Z,58.45
2023-02-16T05:44:43.462Z,58.42
2023-02-16T05:47:11.489Z,58.76
2023-02-16T05:49:41.582Z,58.84
2023-02-16T05:52:09.762Z,58.90
2023-02-16T05:54:37.834Z,58.96
2023-02-16T05:57:06.027Z,59.01
2023-02-16T05:59:34.104Z,58.76
2023-02-16T06:02:02.221Z,58.69
2023-02-16T06:04:32.547Z,58.55
2023-02-16T06:07:01.943Z,58.39
2023-02-16T06:09:31.328Z,58.69
2023-02-16T06:11:59.348Z,58.76
2023-02-16T06:14:27.359Z,58.72
2023-02-16T06:16:56.592Z,58.63
2023-02-16T06:19:24.577Z,58.68
2023-02-16T06:21:52.620Z,59.08
2023-02-16T06:24:22.250Z,59.04
2023-02-16T06:26:50.311Z,58.62
2023-02-16T06:29:18.293Z,58.37
2023-02-16T06:31:46.566Z,58.36
2023-02-16T06:34:14.678Z,58.64
2023-02-16T06:36:42.890Z,59.08
2023-02-16T06:39:11.304Z,59.23
2023-02-16T06:41:41.004Z,58.93
2023-02-16T06:44:12.411Z,58.84
2023-02-16T06:46:41.443Z,59.09
2023-02-16T06:49:18.062Z,58.81
2023-02-16T06:52:05.511Z,59.09
2023-02-16T06:54:33.751Z,59.15
2023-02-16T06:57:03.457Z,59.25
2023-02-16T06:59:31.438Z,59.23
2023-02-16T07:01:59.416Z,59.15
2023-02-16T07:04:27.823Z,58.92
2023-02-16T07:06:55.784Z,58.83
2023-02-16T07:09:42.605Z,58.74
2023-02-16T07:12:12.293Z,58.67
2023-02-16T07:14:58.816Z,58.65
2023-02-16T07:17:27.308Z,58.56
2023-02-16T07:19:55.399Z,58.69
2023-02-16T07:22:23.567Z,58.54
2023-02-16T07:24:51.892Z,58.40
2023-02-16T07:27:21.266Z,58.63
2023-02-16T07:29:49.303Z,58.56
2023-02-16T07:32:17.735Z,58.71
2023-02-16T07:34:46.059Z,58.72
2023-02-16T07:37:14.135Z,58.73
2023-02-16T07:39:42.429Z,58.75
2023-02-16T07:42:10.411Z,58.90
2023-02-16T07:44:39.797Z,58.81
2023-02-16T07:47:08.031Z,58.69
2023-02-16T07:49:36.172Z,58.99
2023-02-16T07:52:04.214Z,59.14
2023-02-16T07:54:32.652Z,58.84
2023-02-16T07:57:00.648Z,58.79
2023-02-16T07:59:28.642Z,59.03
2023-02-16T08:01:58.580Z,58.64
2023-02-16T08:04:26.889Z,58.51
2023-02-16T08:06:54.935Z,58.32
2023-02-16T08:09:23.014Z,58.50
2023-02-16T08:11:51.319Z,58.14
2023-02-16T08:14:19.309Z,58.02
2023-02-16T08:16:48.967Z,57.95
2023-02-16T08:19:19.983Z,58.00
2023-02-16T08:21:49.436Z,58.25
2023-02-16T08:24:18.130Z,58.21
2023-02-16T08:26:49.792Z,58.00
2023-02-16T08:29:18.687Z,57.82
2023-02-16T08:31:48.160Z,57.67
2023-02-16T08:34:18.573Z,57.94
2023-02-16T08:36:52.949Z,57.84
2023-02-16T08:39:22.901Z,57.86
2023-02-16T08:41:52.075Z,57.65
2023-02-16T08:44:21.547Z,57.57
2023-02-16T08:46:50.778Z,57.64
2023-02-16T08:49:21.883Z,57.50
2023-02-16T08:51:54.642Z,57.31
2023-02-16T08:54:26.649Z,57.18
2023-02-16T08:56:55.744Z,57.31
2023-02-16T08:59:28.223Z,57.13
2023-02-16T09:01:57.048Z,57.01
2023-02-16T09:04:29.027Z,56.81
2023-02-16T09:06:59.582Z,56.68
2023-02-16T09:09:28.887Z,56.77
2023-02-16T09:11:57.749Z,56.31
2023-02-16T09:14:26.441Z,56.32
2023-02-16T09:16:54.749Z,55.78
2023-02-16T09:19:22.888Z,55.90
2023-02-16T09:21:52.042Z,55.18
2023-02-16T09:24:22.013Z,55.25
2023-02-16T09:26:50.166Z,55.67
2023-02-16T09:29:18.729Z,54.76
2023-02-16T09:31:47.000Z,54.92
2023-02-16T09:34:17.725Z,55.44
2023-02-16T09:36:47.238Z,55.54
2023-02-16T09:39:16.993Z,55.28
2023-02-16T09:42:01.120Z,55.13
2023-02-16T09:44:40.954Z,53.40
2023-02-16T09:47:15.227Z,54.01
2023-02-16T09:49:45.294Z,53.06
2023-02-16T09:52:24.167Z,53.37
2023-02-16T09:54:54.938Z,53.51
2023-02-16T09:57:41.223Z,53.82
2023-02-16T10:00:18.958Z,51.98
2023-02-16T10:02:54.156Z,53.51
2023-02-16T10:05:28.257Z,52.92
2023-02-16T10:08:01.906Z,53.12
2023-02-16T10:10:40.333Z,53.35
2023-02-16T10:13:18.007Z,52.75
2023-02-16T10:15:47.068Z,51.78
2023-02-16T10:18:25.731Z,53.48
2023-02-16T10:20:57.232Z,52.15
2023-02-16T10:23:35.960Z,52.80
2023-02-16T10:26:14.999Z,51.13
2023-02-16T10:28:48.305Z,50.54
2023-02-16T10:31:23.799Z,51.42
2023-02-16T10:34:06.887Z,52.30
2023-02-16T10:36:51.882Z,51.70
2023-02-16T10:39:27.292Z,49.82
2023-02-16T10:42:03.550Z,49.90
2023-02-16T10:44:40.228Z,51.00
2023-02-16T10:47:20.798Z,50.87
2023-02-16T10:49:51.435Z,49.88
2023-02-16T10:52:21.015Z,51.53
2023-02-16T10:54:49.498Z,51.70
2023-02-16T10:57:27.156Z,51.29
2023-02-16T11:00:00.279Z,48.45
2023-02-16T11:02:36.571Z,51.52
2023-02-16T11:05:34.288Z,48.52
2023-02-16T11:08:07.716Z,48.08
2023-02-16T11:10:43.863Z,50.81
2023-02-16T11:13:29.590Z,50.29
2023-02-16T11:16:01.227Z,48.09
2023-02-16T11:18:39.117Z,49.56
2023-02-16T11:21:11.198Z,48.70
2023-02-16T11:23:40.916Z,48.90
2023-02-16T11:26:28.856Z,50.05
2023-02-16T11:29:08.801Z,47.54
2023-02-16T11:31:39.247Z,47.85
2023-02-16T11:34:13.610Z,48.80
2023-02-16T11:36:47.067Z,49.78
2023-02-16T11:39:20.508Z,49.77
2023-02-16T11:41:52.681Z,49.31
2023-02-16T11:44:28.027Z,49.23
2023-02-16T11:46:57.861Z,48.88
2023-02-16T11:49:35.472Z,48.18
2023-02-16T11:52:25.067Z,47.80
2023-02-16T11:55:03.144Z,46.59
2023-02-16T11:57:34.363Z,49.67
2023-02-16T12:00:11.882Z,49.78
2023-02-16T12:03:10.747Z,48.21
2023-02-16T12:05:49.015Z,46.19
2023-02-16T12:08:28.847Z,48.66
2023-02-16T12:11:11.485Z,47.70
2023-02-16T12:13:46.330Z,47.01
2023-02-16T12:16:28.053Z,47.16
2023-02-16T12:19:09.594Z,48.15
2023-02-16T12:21:45.460Z,47.88
2023-02-16T12:24:30.827Z,48.46
2023-02-16T12:27:02.804Z,45.80
2023-02-16T12:29:44.995Z,47.79
2023-02-16T12:32:32.930Z,47.48
2023-02-16T12:35:15.952Z,45.91
2023-02-16T12:37:54.760Z,46.08
2023-02-16T12:40:32.363Z,47.74
2023-02-16T12:43:19.606Z,46.05
2023-02-16T12:45:49.528Z,45.28
2023-02-16T12:48:36.382Z,48.86
2023-02-16T12:51:10.281Z,45.80
2023-02-16T12:53:46.931Z,47.47
2023-02-16T12:56:21.485Z,46.59
2023-02-16T12:58:55.466Z,45.70
2023-02-16T13:01:28.478Z,47.63
2023-02-16T13:04:01.369Z,46.91
2023-02-16T13:06:33.965Z,48.51
2023-02-16T13:09:12.181Z,46.39
2023-02-16T13:11:47.275Z,45.71
2023-02-16T13:14:21.429Z,46.10
2023-02-16T13:16:54.705Z,46.96
2023-02-16T13:19:23.216Z,46.29
2023-02-16T13:22:09.815Z,47.11
2023-02-16T13:24:49.261Z,45.79
2023-02-16T13:27:30.042Z,46.31
2023-02-16T13:30:28.871Z,45.16
2023-02-16T13:33:14.209Z,43.60
2023-02-16T13:35:58.545Z,45.42
2023-02-16T13:38:50.130Z,44.22
2023-02-16T13:41:35.736Z,44.74
2023-02-16T13:44:11.168Z,44.46
2023-02-16T13:46:43.779Z,43.57
2023-02-16T13:49:31.145Z,46.31
2023-02-16T13:52:00.873Z,43.27
2023-02-16T13:54:31.531Z,47.67
2023-02-16T13:57:03.611Z,46.44
2023-02-16T14:00:01.335Z,46.39
2023-02-16T14:03:01.546Z,43.51
2023-02-16T14:05:34.004Z,45.56
2023-02-16T14:08:24.505Z,47.21
2023-02-16T14:11:08.336Z,45.28
2023-02-16T14:13:48.460Z,45.41
2023-02-16T14:16:42.736Z,46.31
2023-02-16T14:19:21.159Z,45.12
2023-02-16T14:21:50.869Z,45.49
2023-02-16T14:24:33.906Z,48.03
2023-02-16T14:27:04.331Z,46.15
2023-02-16T14:29:36.807Z,48.04
2023-02-16T14:32:18.293Z,45.86
2023-02-16T14:34:53.338Z,46.90
2023-02-16T14:37:35.811Z,46.62
2023-02-16T14:40:23.377Z,44.92
2023-02-16T14:42:56.146Z,44.76
2023-02-16T14:45:54.700Z,47.37
2023-02-16T14:48:39.596Z,44.69
2023-02-16T14:51:35.080Z,45.85
2023-02-16T14:54:54.399Z,46.86
2023-02-16T14:57:31.707Z,43.90
2023-02-16T15:00:04.585Z,45.32
2023-02-16T15:02:35.028Z,46.96
2023-02-16T15:05:18.838Z,47.48
2023-02-16T15:07:50.470Z,44.42
2023-02-16T15:10:26.763Z,46.22
2023-02-16T15:12:56.120Z,47.13
2023-02-16T15:15:41.227Z,47.47
2023-02-16T15:18:16.349Z,46.37
2023-02-16T15:20:48.845Z,47.07
2023-02-16T15:23:22.119Z,47.50
2023-02-16T15:25:58.637Z,47.32
2023-02-16T15:28:29.505Z,47.42
2023-02-16T15:31:00.721Z,47.75
2023-02-16T15:33:37.121Z,47.79
2023-02-16T15:36:11.973Z,47.24
2023-02-16T15:38:41.844Z,46.97
2023-02-16T15:41:14.230Z,48.08
2023-02-16T15:43:47.556Z,47.97
2023-02-16T15:46:26.598Z,47.93
2023-02-16T15:48:55.043Z,48.07
2023-02-16T15:51:28.925Z,48.59
2023-02-16T15:53:59.542Z,48.42
2023-02-16T15:56:38.362Z,48.76
2023-02-16T15:59:28.788Z,48.92
2023-02-16T16:02:00.441Z,48.52
2023-02-16T16:04:29.737Z,49.52
2023-02-16T16:07:00.290Z,49.07
2023-02-16T16:09:31.395Z,49.47
2023-02-16T16:12:01.330Z,49.26
2023-02-16T16:14:33.952Z,49.34
2023-02-16T16:17:02.496Z,49.71
2023-02-16T16:19:35.826Z,50.08
2023-02-16T16:22:15.780Z,49.76
2023-02-16T16:24:47.817Z,49.74
2023-02-16T16:27:37.020Z,49.80
2023-02-16T16:30:31.897Z,49.23
2023-02-16T16:33:18.651Z,49.76
2023-02-16T16:35:50.417Z,49.79
2023-02-16T16:38:27.795Z,49.99
2023-02-16T16:41:06.998Z,49.80
2023-02-16T16:43:48.120Z,49.87
2023-02-16T16:46:24.195Z,50.29
2023-02-16T16:48:56.478Z,50.15
2023-02-16T16:51:38.959Z,50.21
2023-02-16T16:54:12.490Z,50.21
2023-02-16T16:56:42.583Z,50.39
2023-02-16T16:59:10.691Z,50.59
2023-02-16T17:01:38.687Z,50.66
2023-02-16T17:04:07.054Z,50.79
2023-02-16T17:06:35.067Z,50.70
2023-02-16T17:09:03.305Z,50.86
2023-02-16T17:11:35.521Z,50.78
2023-02-16T17:14:08.405Z,50.71
2023-02-16T17:16:40.399Z,50.75
2023-02-16T17:19:08.573Z,50.98
2023-02-16T17:21:36.856Z,50.93
2023-02-16T17:24:07.196Z,50.96
2023-02-16T17:26:37.607Z,51.22
2023-02-16T17:29:06.945Z,50.91
2023-02-16T17:31:35.613Z,51.27
2023-02-16T17:34:04.477Z,50.84
2023-02-16T17:36:34.387Z,50.82
2023-02-16T17:39:02.683Z,50.86
2023-02-16T17:41:30.856Z,50.88
2023-02-16T17:44:00.532Z,51.21
2023-02-16T17:46:29.076Z,51.32
2023-02-16T17:48:57.116Z,51.44
2023-02-16T17:51:26.674Z,51.35
2023-02-16T17:53:54.747Z,51.21
2023-02-16T17:56:25.009Z,51.20
2023-02-16T17:58:53.250Z,51.15
2023-02-16T18:01:22.747Z,51.13
2023-02-16T18:03:52.392Z,51.27
2023-02-16T18:06:25.045Z,51.40
2023-02-16T18:08:54.252Z,51.29
2023-02-16T18:11:22.287Z,51.41
2023-02-16T18:13:50.522Z,51.45
2023-02-16T18:16:21.807Z,51.63
2023-02-16T18:18:51.234Z,51.76
2023-02-16T18:21:19.689Z,51.92
2023-02-16T18:23:47.630Z,52.20
2023-02-16T18:26:17.288Z,52.24
2023-02-16T18:28:45.882Z,52.45
2023-02-16T18:31:14.640Z,52.32
2023-02-16T18:33:43.431Z,52.67
2023-02-16T18:36:14.046Z,52.82
2023-02-16T18:38:42.793Z,52.97
2023-02-16T18:41:10.921Z,52.90
2023-02-16T18:43:41.559Z,53.05
2023-02-16T18:46:11.398Z,53.25
2023-02-16T18:48:39.948Z,53.22
2023-02-16T18:51:09.679Z,53.77
2023-02-16T18:53:40.523Z,53.54
2023-02-16T18:56:12.735Z,53.72
2023-02-16T18:58:41.389Z,53.54
2023-02-16T19:01:14.393Z,53.57
2023-02-16T19:03:42.935Z,53.81
2023-02-16T19:06:11.366Z,53.79
2023-02-16T19:08:40.670Z,53.58
2023-02-16T19:11:08.718Z,53.50
2023-02-16T19:13:37.110Z,53.19
2023-02-16T19:16:06.092Z,53.41
2023-02-16T19:18:34.404Z,53.44
2023-02-16T19:21:06.060Z,53.32
2023-02-16T19:23:34.331Z,53.28
2023-02-16T19:26:07.528Z,53.38
2023-02-16T19:28:36.162Z,53.61
2023-02-16T19:31:06.640Z,53.74
2023-02-16T19:33:35.381Z,53.88
2023-02-16T19:36:05.534Z,54.06
2023-02-16T19:38:34.236Z,53.95
2023-02-16T19:41:02.716Z,53.92
2023-02-16T19:43:32.136Z,54.13
2023-02-16T19:46:00.443Z,53.93
2023-02-16T19:48:28.601Z,54.10
2023-02-16T19:50:58.302Z,54.25
2023-02-16T19:53:26.601Z,54.39
2023-02-16T19:55:54.987Z,54.16
2023-02-16T19:58:23.590Z,54.14
2023-02-16T20:00:54.013Z,54.16
2023-02-16T20:03:22.567Z,54.54
2023-02-16T20:05:50.595Z,54.50
2023-02-16T20:08:18.688Z,54.49
2023-02-16T20:10:47.032Z,54.47
2023-02-16T20:13:15.061Z,54.86
2023-02-16T20:15:43.869Z,54.68
2023-02-16T20:18:13.597Z,55.00
2023-02-16T20:20:41.604Z,54.62
2023-02-16T20:23:09.568Z,54.64
2023-02-16T20:25:40.422Z,54.61
2023-02-16T20:28:08.497Z,54.66
2023-02-16T20:30:36.585Z,54.78
2023-02-16T20:33:04.850Z,54.83
2023-02-16T20:35:34.469Z,55.04
2023-02-16T20:38:02.424Z,54.79
2023-02-16T20:40:30.736Z,54.66
2023-02-16T20:42:58.693Z,54.78
2023-02-16T20:45:26.741Z,54.63
2023-02-16T20:47:55.031Z,54.57
2023-02-16T20:50:23.097Z,54.53
2023-02-16T20:52:52.476Z,54.47
2023-02-16T20:55:20.712Z,54.82
2023-02-16T20:57:48.878Z,54.60
2023-02-16T21:00:21.683Z,54.57
2023-02-16T21:02:51.987Z,54.45
2023-02-16T21:05:21.512Z,54.49
2023-02-16T21:07:50.143Z,54.47
2023-02-16T21:10:19.584Z,54.59
2023-02-16T21:12:47.665Z,54.58
2023-02-16T21:15:16.042Z,54.53
2023-02-16T21:17:44.396Z,54.70
2023-02-16T21:20:12.707Z,54.96
2023-02-16T21:22:41.355Z,54.85
2023-02-16T21:25:09.674Z,54.82
2023-02-16T21:27:39.089Z,54.95
2023-02-16T21:30:09.263Z,55.15
2023-02-16T21:32:37.418Z,55.02
2023-02-16T21:35:06.058Z,55.10
2023-02-16T21:37:36.131Z,55.37
2023-02-16T21:40:22.241Z,55.25
2023-02-16T21:42:53.364Z,55.10
2023-02-16T21:45:21.666Z,55.08
2023-02-16T21:48:08.293Z,54.92
2023-02-16T21:50:38.931Z,55.06
2023-02-16T21:53:08.111Z,55.00
2023-02-16T21:55:55.488Z,54.89
2023-02-16T21:58:26.904Z,54.86
2023-02-16T22:00:56.483Z,54.88
2023-02-16T22:03:25.685Z,54.67
2023-02-16T22:05:53.737Z,54.79
2023-02-16T22:08:22.174Z,54.71
2023-02-16T22:10:50.435Z,54.75
2023-02-16T22:13:18.490Z,54.83
2023-02-16T22:15:48.900Z,54.84
2023-02-16T22:18:17.174Z,54.92
2023-02-16T22:20:46.492Z,54.91
2023-02-16T22:23:14.598Z,55.01
2023-02-16T22:25:42.883Z,55.07
2023-02-16T22:28:10.832Z,55.25
2023-02-16T22:30:38.800Z,55.34
2023-02-16T22:33:08.501Z,55.57
2023-02-16T22:35:36.579Z,55.65
2023-02-16T22:38:04.759Z,55.67
2023-02-16T22:40:33.066Z,55.63
2023-02-16T22:43:01.285Z,55.59
2023-02-16T22:45:30.138Z,55.76
2023-02-16T22:47:58.543Z,55.54
2023-02-16T22:50:27.966Z,55.58
2023-02-16T22:52:56.019Z,55.45
2023-02-16T22:55:24.347Z,55.47
2023-02-16T22:57:52.337Z,55.55
2023-02-16T23:00:20.457Z,55.66
2023-02-16T23:03:08.676Z,55.51
2023-02-16T23:05:39.252Z,55.78
2023-02-16T23:08:07.498Z,55.82
2023-02-16T23:10:35.888Z,55.66
2023-02-16T23:13:03.947Z,55.98
2023-02-16T23:15:32.338Z,55.98
2023-02-16T23:18:00.316Z,56.08
2023-02-16T23:20:28.697Z,56.23
2023-02-16T23:22:58.410Z,56.12
2023-02-16T23:25:35.408Z,56.06
2023-02-16T23:28:05.593Z,56.09
2023-02-16T23:30:33.646Z,55.99
2023-02-16T23:33:01.602Z,55.92
2023-02-16T23:35:29.937Z,56.04
2023-02-16T23:37:59.906Z,56.14
2023-02-16T23:40:28.041Z,56.45
2023-02-16T23:42:56.452Z,56.15
2023-02-16T23:45:24.486Z,56.45
2023-02-16T23:47:52.569Z,56.30
2023-02-16T23:50:21.268Z,56.31
2023-02-16T23:52:49.682Z,56.42
2023-02-16T23:55:19.578Z,56.54
2023-02-16T23:57:48.062Z,56.61
